Time;durP1;ratioP1;P1;durP2;ratioP2;P2;SDS_P1;SDS_P2;PMS_P1;PMS_P2;Temp;Humidity;BMP_temperature;BMP_pressure;BME280_temperature;BME280_humidity;BME280_pressure;Samples;Min_cycle;Max_cycle;Signal;HPM_P1;HPM_P2
2021/04/06 00:00:14;;;;;;;2.42;0.90;;;;;;;-0.81;72.81;100342.13;4999679;28;20080;-66
2021/04/06 00:02:44;;;;;;;2.67;1.00;;;;;;;-0.82;71.66;100332.63;5006726;28;20039;-68
2021/04/06 00:05:11;;;;;;;1.77;0.90;;;;;;;-0.78;72.95;100331.56;5010816;28;20060;-66
2021/04/06 00:07:38;;;;;;;2.85;0.95;;;;;;;-0.77;73.73;100324.59;5007024;28;20038;-66
2021/04/06 00:10:08;;;;;;;2.58;0.95;;;;;;;-0.81;73.45;100323.06;4993728;28;20395;-65
2021/04/06 00:12:35;;;;;;;3.58;1.05;;;;;;;-0.84;71.77;100318.06;5008648;28;20506;-66
2021/04/06 00:15:03;;;;;;;2.25;1.10;;;;;;;-0.83;69.98;100328.38;5003746;28;20050;-66
2021/04/06 00:17:30;;;;;;;4.20;1.00;;;;;;;-0.87;69.41;100313.88;5006672;28;20034;-65
2021/04/06 00:19:58;;;;;;;2.67;1.08;;;;;;;-0.84;69.35;100300.72;5012787;28;20056;-66
2021/04/06 00:22:27;;;;;;;2.67;1.30;;;;;;;-0.81;68.76;100297.97;5012051;28;20044;-65
2021/04/06 00:24:54;;;;;;;2.78;1.27;;;;;;;-0.81;68.30;100291.94;5007424;28;20077;-65
2021/04/06 00:27:31;;;;;;;1.88;1.17;;;;;;;-0.84;68.55;100299.88;5009150;28;20045;-66
2021/04/06 00:30:06;;;;;;;3.90;1.30;;;;;;;-0.82;68.12;100293.69;5010363;28;20113;-65
2021/04/06 00:32:32;;;;;;;4.53;1.13;;;;;;;-0.86;68.56;100286.97;5011877;28;20100;-66
2021/04/06 00:34:59;;;;;;;2.45;1.08;;;;;;;-0.92;70.89;100288.16;5012741;28;20026;-65
2021/04/06 00:37:25;;;;;;;4.60;1.35;;;;;;;-0.91;68.96;100289.84;5005802;28;20034;-66
2021/04/06 00:40:08;;;;;;;3.30;1.33;;;;;;;-0.91;68.74;100289.84;4996632;28;20093;-66
2021/04/06 00:42:35;;;;;;;3.50;1.20;;;;;;;-0.93;69.95;100302.09;5012025;28;20124;-66
2021/04/06 00:45:21;;;;;;;7.78;1.63;;;;;;;-0.84;68.68;100300.72;5012477;28;20649;-66
2021/04/06 00:47:58;;;;;;;5.43;1.60;;;;;;;-0.84;68.65;100295.53;5002531;28;20124;-65
2021/04/06 00:50:32;;;;;;;2.92;1.30;;;;;;;-0.85;69.53;100296.47;5005275;28;20491;-67
2021/04/06 00:52:58;;;;;;;2.97;1.60;;;;;;;-0.81;69.13;100291.94;5012388;28;20487;-66
2021/04/06 00:55:32;;;;;;;6.68;2.22;;;;;;;-0.77;69.11;100290.84;4987049;28;20045;-66
2021/04/06 00:57:58;;;;;;;5.43;1.80;;;;;;;-0.82;70.57;100288.50;5010316;28;20387;-66
2021/04/06 01:00:26;;;;;;;4.43;1.85;;;;;;;-0.74;69.41;100296.72;5011399;28;20068;-66
2021/04/06 01:03:01;;;;;;;3.13;1.60;;;;;;;-0.82;70.39;100298.06;4995972;28;20447;-66
2021/04/06 01:05:30;;;;;;;4.13;1.80;;;;;;;-0.86;70.13;100287.84;5011154;28;20034;-67
2021/04/06 01:07:56;;;;;;;4.40;1.40;;;;;;;-0.90;70.77;100290.69;4995392;28;20158;-66
2021/04/06 01:10:26;;;;;;;3.92;1.60;;;;;;;-0.93;70.94;100289.09;5009427;28;20117;-66
2021/04/06 01:12:53;;;;;;;2.70;1.40;;;;;;;-0.96;70.46;100286.66;5011206;28;20379;-66
2021/04/06 01:15:21;;;;;;;4.90;1.73;;;;;;;-0.96;70.48;100286.66;5008056;28;20658;-66
2021/04/06 01:17:47;;;;;;;6.10;1.77;;;;;;;-0.94;69.98;100282.22;4998784;28;20112;-66
2021/04/06 01:20:16;;;;;;;5.43;1.73;;;;;;;-0.91;70.18;100283.81;5008007;28;20126;-66
2021/04/06 01:22:43;;;;;;;4.78;1.67;;;;;;;-0.94;70.00;100279.63;4997260;28;20034;-66
2021/04/06 01:25:17;;;;;;;7.60;1.77;;;;;;;-0.95;69.92;100272.78;4993808;28;20041;-66
2021/04/06 01:27:42;;;;;;;5.18;2.20;;;;;;;-0.96;69.98;100281.47;4993440;28;20045;-68
2021/04/06 01:30:10;;;;;;;9.35;2.10;;;;;;;-0.87;69.72;100280.13;4998467;28;20034;-66
2021/04/06 01:32:35;;;;;;;7.32;1.80;;;;;;;-0.86;69.68;100269.69;5007651;28;20458;-66
2021/04/06 01:35:01;;;;;;;2.70;1.40;;;;;;;-0.80;69.65;100270.25;5011661;28;20038;-66
2021/04/06 01:37:28;;;;;;;5.30;1.52;;;;;;;-0.80;69.88;100271.09;5011969;28;20030;-66
2021/04/06 01:39:56;;;;;;;5.05;1.52;;;;;;;-0.76;69.91;100272.59;5011624;28;20434;-66
2021/04/06 01:42:25;;;;;;;6.53;1.50;;;;;;;-0.73;69.65;100276.78;5011471;28;20034;-66
2021/04/06 01:44:52;;;;;;;5.28;1.48;;;;;;;-0.67;69.54;100269.50;5004493;28;20525;-66
2021/04/06 01:47:19;;;;;;;3.75;1.30;;;;;;;-0.60;69.08;100263.94;5005549;28;20050;-66
2021/04/06 01:49:45;;;;;;;4.30;1.45;;;;;;;-0.56;69.01;100255.88;5006318;28;20038;-66
2021/04/06 01:52:11;;;;;;;4.35;1.00;;;;;;;-0.50;68.52;100257.28;5008033;28;20046;-66
2021/04/06 01:54:39;;;;;;;4.25;1.33;;;;;;;-0.48;68.41;100255.44;5000421;28;20041;-66
2021/04/06 01:57:15;;;;;;;6.57;1.60;;;;;;;-0.42;68.34;100257.69;5008712;28;20025;-66
2021/04/06 01:59:57;;;;;;;2.75;0.90;;;;;;;-0.43;68.18;100258.59;5000055;28;20120;-66
2021/04/06 02:02:29;;;;;;;3.50;1.10;;;;;;;-0.39;67.89;100260.09;5006051;28;20302;-66
2021/04/06 02:05:00;;;;;;;6.40;1.45;;;;;;;-0.29;67.47;100256.03;5001494;28;20061;-66
2021/04/06 02:07:30;;;;;;;;;;;;;;;-0.31;67.41;100254.47;5006897;28;20061;-66
2021/04/06 02:09:55;;;;;;;3.35;1.27;;;;;;;-0.22;67.19;100265.16;5007423;28;19917;-66
2021/04/06 02:12:24;;;;;;;3.00;1.00;;;;;;;-0.22;67.08;100259.94;5005284;28;20116;-66
2021/04/06 02:14:56;;;;;;;4.93;1.40;;;;;;;-0.19;67.34;100263.31;5000776;28;20044;-66
2021/04/06 02:17:22;;;;;;;5.43;1.45;;;;;;;-0.15;66.52;100251.81;5008877;28;20073;-65
2021/04/06 02:19:47;;;;;;;5.18;1.40;;;;;;;-0.10;67.27;100253.19;5008132;28;20394;-66
2021/04/06 02:22:17;;;;;;;4.40;1.58;;;;;;;-0.08;66.86;100240.97;5010034;28;20124;-66
2021/04/06 02:24:51;;;;;;;5.72;1.30;;;;;;;-0.07;66.88;100245.25;5002334;28;20034;-66
2021/04/06 02:27:20;;;;;;;7.50;1.50;;;;;;;-0.04;66.99;100241.63;5002540;28;20180;-66
2021/04/06 02:29:49;;;;;;;5.72;1.60;;;;;;;-0.06;67.35;100251.28;5010550;28;20061;-66
2021/04/06 02:32:17;;;;;;;6.65;1.60;;;;;;;-0.06;67.55;100243.47;4992010;28;20030;-66
2021/04/06 02:34:47;;;;;;;3.95;1.25;;;;;;;-0.07;67.71;100231.41;4990760;28;20069;-67
2021/04/06 02:37:20;;;;;;;3.85;1.35;;;;;;;-0.02;67.55;100227.63;5009749;28;20046;-67
2021/04/06 02:39:48;;;;;;;5.13;1.35;;;;;;;-0.07;68.08;100239.19;5011049;28;20033;-66
2021/04/06 02:42:30;;;;;;;4.85;1.42;;;;;;;-0.02;67.73;100242.38;5009431;28;20352;-66
2021/04/06 02:45:15;;;;;;;5.07;1.35;;;;;;;-0.02;67.86;100240.59;5010316;28;20037;-66
2021/04/06 02:47:51;;;;;;;8.63;1.77;;;;;;;-0.03;68.27;100236.31;4997373;28;20153;-67
2021/04/06 02:50:24;;;;;;;4.38;1.48;;;;;;;0.01;68.13;100244.78;4983590;28;20022;-66
2021/04/06 02:52:50;;;;;;;4.40;1.50;;;;;;;0.01;68.20;100238.75;5009356;28;20121;-66
2021/04/06 02:55:16;;;;;;;4.57;1.35;;;;;;;0.01;68.25;100234.38;5010045;28;20038;-66
2021/04/06 02:57:47;;;;;;;6.40;1.60;;;;;;;0.08;68.08;100229.66;5003062;28;20444;-65
2021/04/06 03:00:28;;;;;;;;;;;;;;;0.10;68.04;100236.44;5003218;28;20391;-67
2021/04/06 03:02:55;;;;;;;3.47;1.35;;;;;;;0.08;68.07;100238.28;4991874;28;19925;-67
2021/04/06 03:05:46;;;;;;;6.95;1.88;;;;;;;0.03;68.55;100234.31;5010472;28;20493;-67
2021/04/06 03:08:12;;;;;;;5.75;1.55;;;;;;;0.11;68.01;100237.28;5003223;28;20058;-66
2021/04/06 03:10:37;;;;;;;4.85;1.58;;;;;;;0.11;68.08;100232.06;5009526;28;20131;-67
2021/04/06 03:13:13;;;;;;;5.53;1.63;;;;;;;0.06;68.33;100240.16;5008760;28;20034;-66
2021/04/06 03:15:41;;;;;;;4.97;1.70;;;;;;;0.19;68.06;100237.63;5009760;28;20141;-66
2021/04/06 03:18:08;;;;;;;4.05;1.70;;;;;;;0.21;68.09;100238.38;4999042;28;20080;-67
2021/04/06 03:20:36;;;;;;;6.30;1.70;;;;;;;0.19;68.32;100235.91;4994522;28;20038;-67
2021/04/06 03:23:04;;;;;;;5.15;1.80;;;;;;;0.22;68.19;100236.66;5009471;28;20037;-66
2021/04/06 03:25:32;;;;;;;8.52;2.00;;;;;;;0.28;67.83;100233.66;5004782;28;20457;-66
2021/04/06 03:28:07;;;;;;;5.30;1.50;;;;;;;0.29;67.56;100243.97;5009673;28;20069;-67
2021/04/06 03:30:33;;;;;;;7.38;1.70;;;;;;;0.35;67.35;100237.56;5003821;28;20038;-67
2021/04/06 03:33:12;;;;;;;6.40;1.90;;;;;;;0.33;67.59;100232.44;5004540;28;20044;-66
2021/04/06 03:35:46;;;;;;;7.68;1.88;;;;;;;0.29;67.53;100228.38;4990920;28;20100;-66
2021/04/06 03:38:13;;;;;;;5.35;1.55;;;;;;;0.32;67.39;100229.94;5005901;28;20081;-67
2021/04/06 03:40:39;;;;;;;5.80;1.83;;;;;;;0.33;67.66;100229.00;4992208;28;20033;-66
2021/04/06 03:43:15;;;;;;;5.13;1.50;;;;;;;0.30;68.04;100222.22;5006529;28;20036;-66
2021/04/06 03:45:56;;;;;;;3.70;1.52;;;;;;;0.27;67.79;100226.78;5008966;28;20045;-66
2021/04/06 03:48:23;;;;;;;5.72;1.80;;;;;;;0.32;67.86;100217.78;5008159;28;20038;-66
2021/04/06 03:50:50;;;;;;;8.93;1.80;;;;;;;0.25;68.09;100221.69;5009398;28;20029;-66
2021/04/06 03:53:15;;;;;;;7.50;2.13;;;;;;;0.26;68.42;100220.72;5009413;28;20030;-67
2021/04/06 03:55:42;;;;;;;9.43;2.25;;;;;;;0.34;68.21;100212.47;5009023;28;20487;-67
2021/04/06 03:58:14;;;;;;;6.97;2.13;;;;;;;0.28;68.63;100216.28;5008908;28;20042;-67
2021/04/06 04:00:40;;;;;;;5.07;1.80;;;;;;;0.25;68.79;100211.28;5009175;28;20041;-66
2021/04/06 04:03:06;;;;;;;7.43;1.90;;;;;;;0.31;68.67;100207.44;5004224;28;20034;-66
2021/04/06 04:05:31;;;;;;;7.25;1.90;;;;;;;0.25;68.81;100202.63;5008330;28;20033;-67
2021/04/06 04:07:57;;;;;;;8.07;2.03;;;;;;;0.23;68.81;100207.94;5009255;28;20403;-66
2021/04/06 04:10:22;;;;;;;9.95;2.50;;;;;;;0.27;68.77;100208.59;4998279;28;20070;-66
2021/04/06 04:12:47;;;;;;;5.43;1.87;;;;;;;0.23;68.57;100201.91;5000776;28;20089;-66
2021/04/06 04:15:13;;;;;;;5.18;2.03;;;;;;;0.27;68.53;100206.00;5007716;28;20065;-67
2021/04/06 04:17:39;;;;;;;6.40;2.47;;;;;;;0.25;68.56;100205.25;5008758;28;20151;-68
2021/04/06 04:20:12;;;;;;;7.70;2.22;;;;;;;0.23;68.75;100204.50;5008541;28;20038;-66
2021/04/06 04:22:37;;;;;;;7.15;2.33;;;;;;;0.26;69.05;100205.13;5009149;28;20045;-66
2021/04/06 04:25:04;;;;;;;7.32;2.22;;;;;;;0.26;68.79;100206.91;5009407;28;20034;-66
2021/04/06 04:27:29;;;;;;;7.03;2.25;;;;;;;0.24;69.15;100208.75;5009191;28;20042;-66
2021/04/06 04:29:55;;;;;;;8.32;2.50;;;;;;;0.22;69.68;100215.84;5009602;28;20125;-66
2021/04/06 04:32:20;;;;;;;6.22;2.42;;;;;;;0.27;69.10;100208.59;4990879;28;20127;-66
2021/04/06 04:34:45;;;;;;;8.52;3.15;;;;;;;0.25;69.25;100219.06;5009141;28;20042;-66
2021/04/06 04:37:11;;;;;;;6.45;2.28;;;;;;;0.31;68.90;100210.06;5008391;28;20041;-66
2021/04/06 04:39:36;;;;;;;6.80;2.35;;;;;;;0.26;69.15;100209.50;5009770;28;20084;-66
2021/04/06 04:42:01;;;;;;;7.28;2.35;;;;;;;0.27;69.09;100211.19;5003064;28;20037;-67
2021/04/06 04:44:26;;;;;;;5.70;1.92;;;;;;;0.23;69.25;100204.50;5009359;28;20368;-66
2021/04/06 04:46:52;;;;;;;7.57;2.50;;;;;;;0.24;69.35;100203.56;4994309;28;20037;-67
2021/04/06 04:49:17;;;;;;;10.05;2.63;;;;;;;0.30;69.00;100211.81;5011496;28;20124;-67
2021/04/06 04:51:42;;;;;;;6.55;2.40;;;;;;;0.33;69.12;100211.63;5010631;28;20085;-66
2021/04/06 04:54:08;;;;;;;5.13;2.00;;;;;;;0.30;69.13;100216.19;5011820;28;20042;-67
2021/04/06 04:56:33;;;;;;;6.57;2.50;;;;;;;0.29;69.08;100219.75;4994473;28;20033;-66
2021/04/06 04:58:58;;;;;;;8.25;2.58;;;;;;;0.32;69.03;100214.34;5012170;28;20030;-66
2021/04/06 05:01:24;;;;;;;6.97;2.60;;;;;;;0.33;68.94;100221.19;5008394;28;20053;-66
2021/04/06 05:03:49;;;;;;;8.23;2.13;;;;;;;0.31;69.20;100228.25;4994777;28;20049;-66
2021/04/06 05:06:14;;;;;;;5.10;1.95;;;;;;;0.24;70.19;100222.63;5010145;28;20491;-67
2021/04/06 05:08:40;;;;;;;5.95;2.53;;;;;;;0.34;69.09;100217.69;5012232;28;20038;-67
2021/04/06 05:11:05;;;;;;;9.15;2.60;;;;;;;0.29;69.35;100224.94;5003288;28;20030;-67
2021/04/06 05:13:31;;;;;;;6.95;2.60;;;;;;;0.31;69.17;100218.72;5002826;28;20126;-66
2021/04/06 05:15:56;;;;;;;8.73;3.05;;;;;;;0.39;69.27;100224.25;5012460;28;20372;-67
2021/04/06 05:18:21;;;;;;;10.48;2.78;;;;;;;0.45;68.75;100220.44;5011573;28;20058;-67
2021/04/06 05:20:47;;;;;;;8.50;2.78;;;;;;;0.46;68.43;100226.50;5011914;28;20124;-67
2021/04/06 05:23:12;;;;;;;10.82;2.80;;;;;;;0.40;68.74;100225.91;5011612;28;20487;-67
2021/04/06 05:25:37;;;;;;;6.88;2.80;;;;;;;0.38;68.96;100219.16;5005384;28;20403;-66
2021/04/06 05:28:03;;;;;;;8.32;2.67;;;;;;;0.40;68.72;100227.69;4993373;28;20061;-67
2021/04/06 05:30:28;;;;;;;6.43;2.20;;;;;;;0.39;68.91;100239.88;5006785;28;20030;-67
2021/04/06 05:32:54;;;;;;;7.80;2.17;;;;;;;0.49;68.65;100231.50;5001705;28;20034;-67
2021/04/06 05:35:19;;;;;;;8.13;2.78;;;;;;;0.42;69.24;100239.69;4994955;28;20038;-67
2021/04/06 05:37:44;;;;;;;6.93;2.42;;;;;;;0.41;69.95;100235.41;5002402;28;20108;-67
2021/04/06 05:40:10;;;;;;;7.30;2.38;;;;;;;0.52;68.87;100239.94;4996132;28;20030;-67
2021/04/06 05:42:37;;;;;;;7.10;2.25;;;;;;;0.50;68.89;100243.56;5011598;28;20041;-67
2021/04/06 05:45:05;;;;;;;11.40;2.97;;;;;;;0.52;68.70;100236.50;4995431;28;20384;-66
2021/04/06 05:47:36;;;;;;;9.23;2.40;;;;;;;0.51;69.19;100234.84;5004497;28;20030;-67
2021/04/06 05:50:04;;;;;;;6.93;2.20;;;;;;;0.56;69.25;100243.22;5009063;28;20030;-67
2021/04/06 05:52:33;;;;;;;12.23;2.67;;;;;;;0.61;69.39;100243.75;5010962;28;20040;-67
2021/04/06 05:55:01;;;;;;;6.32;2.50;;;;;;;0.56;70.10;100251.84;4987423;28;20192;-68
2021/04/06 05:57:26;;;;;;;6.93;3.00;;;;;;;0.63;69.59;100247.09;4993252;28;20030;-67
2021/04/06 05:59:51;;;;;;;7.82;2.80;;;;;;;0.57;70.13;100240.53;4995648;28;20042;-67
2021/04/06 06:02:17;;;;;;;6.53;2.55;;;;;;;0.56;69.86;100253.63;5006628;28;20034;-67
2021/04/06 06:04:42;;;;;;;6.93;2.65;;;;;;;0.58;69.71;100244.78;4993526;28;20117;-67
2021/04/06 06:07:08;;;;;;;8.70;2.63;;;;;;;0.54;70.48;100255.47;5007583;28;20063;-67
2021/04/06 06:09:35;;;;;;;7.28;2.58;;;;;;;0.68;69.32;100254.63;5011002;28;20117;-67
2021/04/06 06:12:08;;;;;;;9.18;2.72;;;;;;;0.69;69.47;100253.69;4990237;28;20030;-68
2021/04/06 06:14:37;;;;;;;10.07;2.72;;;;;;;0.77;69.25;100259.25;5009437;28;20042;-67
2021/04/06 06:17:15;;;;;;;8.38;2.80;;;;;;;0.81;68.51;100250.31;5010452;28;20068;-68
2021/04/06 06:19:41;;;;;;;9.48;2.90;;;;;;;0.81;68.12;100247.72;5010624;28;20376;-68
2021/04/06 06:22:12;;;;;;;10.25;2.90;;;;;;;0.85;67.57;100249.19;5009739;28;20080;-67
2021/04/06 06:24:41;;;;;;;;;;;;;;;0.92;67.02;100247.88;5010602;28;20105;-68
2021/04/06 06:27:34;;;;;;;7.60;2.70;;;;;;;0.91;67.33;100248.00;5010463;28;20302;-68
2021/04/06 06:30:19;;;;;;;7.43;2.40;;;;;;;0.94;67.08;100250.38;5009192;28;20216;-68
2021/04/06 06:32:45;;;;;;;7.30;2.53;;;;;;;1.03;66.96;100253.25;5009463;28;20103;-68
2021/04/06 06:35:10;;;;;;;10.80;2.83;;;;;;;1.04;66.74;100257.50;4994566;28;20042;-68
2021/04/06 06:37:35;;;;;;;6.30;2.40;;;;;;;1.00;66.70;100253.44;5009539;28;20053;-68
2021/04/06 06:40:04;;;;;;;12.05;3.13;;;;;;;0.98;66.95;100255.31;5004019;28;20041;-70
2021/04/06 06:42:33;;;;;;;5.82;2.42;;;;;;;1.06;66.83;100260.84;5006321;28;20037;-68
2021/04/06 06:45:00;;;;;;;8.35;2.88;;;;;;;1.08;66.73;100257.34;4992740;28;20228;-68
2021/04/06 06:47:27;;;;;;;6.50;3.15;;;;;;;0.97;67.54;100264.03;5008290;28;20040;-67
2021/04/06 06:49:54;;;;;;;5.70;2.60;;;;;;;1.05;67.07;100255.75;5007166;28;20084;-67
2021/04/06 06:52:19;;;;;;;8.35;2.90;;;;;;;1.11;66.25;100263.16;5001871;28;20107;-68
2021/04/06 06:54:45;;;;;;;7.63;2.57;;;;;;;1.06;66.85;100260.03;5010036;28;20045;-68
2021/04/06 06:57:13;;;;;;;7.38;3.05;;;;;;;1.09;66.86;100269.41;5007931;28;20360;-68
2021/04/06 06:59:43;;;;;;;6.68;2.67;;;;;;;1.14;66.95;100270.78;4998370;28;20030;-68
2021/04/06 07:02:26;;;;;;;7.97;2.92;;;;;;;1.27;66.82;100265.63;5008397;28;20038;-68
2021/04/06 07:04:52;;;;;;;9.75;3.25;;;;;;;1.25;66.47;100262.28;5009121;28;20423;-68
2021/04/06 07:07:18;;;;;;;9.80;3.20;;;;;;;1.25;66.32;100257.06;5008928;28;20171;-67
2021/04/06 07:09:46;;;;;;;6.60;2.92;;;;;;;1.14;66.74;100256.91;5003941;28;20593;-67
2021/04/06 07:12:13;;;;;;;6.88;2.90;;;;;;;1.13;66.76;100256.09;5006841;28;20100;-68
2021/04/06 07:14:40;;;;;;;7.38;2.80;;;;;;;1.12;66.95;100257.03;5009032;28;20038;-68
2021/04/06 07:17:07;;;;;;;7.93;3.20;;;;;;;1.19;67.06;100257.47;5007499;28;20076;-68
2021/04/06 07:19:37;;;;;;;8.45;2.50;;;;;;;1.16;68.72;100249.84;5010013;28;20087;-67
2021/04/06 07:22:03;;;;;;;9.40;2.65;;;;;;;1.39;67.54;100250.97;5009020;28;20033;-68
2021/04/06 07:24:33;;;;;;;8.93;3.28;;;;;;;1.54;66.97;100260.38;5003150;28;20042;-68
2021/04/06 07:27:04;;;;;;;8.70;2.90;;;;;;;1.55;66.93;100253.41;5004252;28;20029;-67
2021/04/06 07:29:30;;;;;;;10.48;2.85;;;;;;;1.60;66.54;100262.59;5006138;28;20449;-67
2021/04/06 07:31:57;;;;;;;8.52;3.25;;;;;;;1.63;66.56;100262.41;5006652;28;20410;-68
2021/04/06 07:34:23;;;;;;;10.38;3.55;;;;;;;1.52;67.17;100251.84;5001648;28;20049;-68
2021/04/06 07:36:50;;;;;;;7.90;3.10;;;;;;;1.78;66.49;100254.50;5009140;28;20053;-67
2021/04/06 07:39:15;;;;;;;9.00;3.78;;;;;;;1.77;65.82;100258.06;5008312;28;20308;-68
2021/04/06 07:41:46;;;;;;;9.40;2.72;;;;;;;1.85;66.67;100253.16;5009079;28;20703;-68
2021/04/06 07:44:14;;;;;;;9.05;3.28;;;;;;;1.87;66.23;100249.50;4991839;28;20034;-67
2021/04/06 07:46:41;;;;;;;6.93;3.20;;;;;;;2.00;65.78;100249.53;5003194;28;20527;-68
2021/04/06 07:49:33;;;;;;;13.02;3.10;;;;;;;2.20;65.74;100256.00;5008455;28;20038;-68
2021/04/06 07:52:16;;;;;;;7.13;2.63;;;;;;;2.54;65.27;100257.09;4996838;28;20037;-67
2021/04/06 07:54:45;;;;;;;8.90;3.40;;;;;;;2.74;63.95;100254.84;5008863;28;20049;-67
2021/04/06 07:57:11;;;;;;;10.13;2.50;;;;;;;2.81;63.93;100261.31;4987506;28;20030;-68
2021/04/06 07:59:37;;;;;;;8.73;3.25;;;;;;;2.86;62.77;100255.78;5008837;28;20052;-68
2021/04/06 08:02:06;;;;;;;8.30;3.10;;;;;;;2.77;62.58;100254.66;5008921;28;20038;-67
2021/04/06 08:04:37;;;;;;;7.97;3.60;;;;;;;2.72;63.66;100255.00;5009159;28;20034;-67
2021/04/06 08:07:20;;;;;;;7.72;3.20;;;;;;;2.79;63.01;100251.91;5009063;28;20072;-68
2021/04/06 08:09:49;;;;;;;8.95;3.05;;;;;;;2.85;63.15;100252.34;5002644;28;20121;-68
2021/04/06 08:12:17;;;;;;;8.98;2.60;;;;;;;2.89;63.47;100248.56;4988544;28;20113;-68
2021/04/06 08:14:47;;;;;;;4.97;2.00;;;;;;;3.11;63.44;100257.47;5005010;28;20050;-68
2021/04/06 08:17:28;;;;;;;8.82;2.72;;;;;;;3.14;62.74;100254.63;5008409;28;20084;-68
2021/04/06 08:20:41;;;;;;;7.90;2.53;;;;;;;3.25;62.48;100262.53;5012694;28;20034;-68
2021/04/06 08:23:08;;;;;;;6.25;2.40;;;;;;;3.24;63.03;100247.78;5002300;28;20085;-67
2021/04/06 08:25:33;;;;;;;5.72;2.25;;;;;;;3.47;63.02;100253.94;5013482;28;20034;-67
2021/04/06 08:28:01;;;;;;;6.43;2.30;;;;;;;3.55;62.33;100251.63;5013299;28;20517;-68
2021/04/06 08:30:30;;;;;;;8.07;2.33;;;;;;;3.61;61.81;100255.56;5012207;28;20036;-67
2021/04/06 08:33:01;;;;;;;9.10;2.67;;;;;;;3.76;61.47;100253.56;5010284;28;20069;-67
2021/04/06 08:35:55;;;;;;;5.70;2.20;;;;;;;3.76;61.87;100246.56;5012107;28;20038;-68
2021/04/06 08:38:20;;;;;;;5.85;2.30;;;;;;;3.91;60.48;100246.34;5003658;28;20407;-68
2021/04/06 08:40:52;;;;;;;7.55;2.55;;;;;;;3.87;60.62;100248.38;5011733;28;20030;-67
2021/04/06 08:43:27;;;;;;;9.20;2.42;;;;;;;3.92;60.98;100253.28;5012545;28;20032;-68
2021/04/06 08:45:55;;;;;;;7.57;2.33;;;;;;;4.11;60.30;100250.91;5012279;28;20044;-68
2021/04/06 08:48:46;;;;;;;10.73;3.10;;;;;;;4.23;59.20;100246.53;5011542;28;20046;-67
2021/04/06 08:51:23;;;;;;;7.72;2.30;;;;;;;4.42;60.35;100244.16;4993423;28;20037;-68
2021/04/06 08:53:51;;;;;;;7.82;2.20;;;;;;;4.89;57.75;100246.63;5010047;28;20052;-67
2021/04/06 08:56:22;;;;;;;5.25;2.42;;;;;;;4.78;58.13;100260.56;5011652;28;20038;-68
2021/04/06 08:58:47;;;;;;;5.85;2.67;;;;;;;5.21;58.23;100253.69;4994237;28;20073;-67
2021/04/06 09:01:13;;;;;;;7.68;2.60;;;;;;;5.38;55.20;100261.00;5012134;28;20069;-67
2021/04/06 09:03:39;;;;;;;6.55;2.40;;;;;;;5.81;56.10;100254.84;5012220;28;20355;-67
2021/04/06 09:06:08;;;;;;;6.55;2.50;;;;;;;5.72;55.66;100253.84;5010773;28;20030;-68
2021/04/06 09:09:09;;;;;;;6.18;2.70;;;;;;;5.35;56.21;100257.81;5005880;28;20502;-68
2021/04/06 09:11:37;;;;;;;8.32;2.92;;;;;;;5.20;56.55;100257.28;4906959;29;20055;-67
2021/04/06 09:14:02;;;;;;;7.40;2.83;;;;;;;4.76;58.65;100261.63;4989243;28;20111;-68
2021/04/06 09:16:29;;;;;;;10.35;2.80;;;;;;;4.45;59.75;100245.69;5011054;28;20045;-68
2021/04/06 09:19:00;;;;;;;9.40;3.35;;;;;;;4.22;61.14;100247.50;5011916;28;20030;-67
2021/04/06 09:21:28;;;;;;;10.30;2.80;;;;;;;3.96;61.76;100249.47;4993702;28;20095;-68
2021/04/06 09:23:57;;;;;;;8.52;2.80;;;;;;;3.79;62.87;100256.81;5011967;28;20022;-67
2021/04/06 09:26:23;;;;;;;6.78;2.42;;;;;;;3.58;63.68;100258.41;5011116;28;20103;-68
2021/04/06 09:29:07;;;;;;;6.20;2.60;;;;;;;3.31;65.22;100262.09;5011696;28;20034;-67
2021/04/06 09:31:35;;;;;;;6.05;2.30;;;;;;;3.05;65.80;100260.50;5010715;28;20092;-68
2021/04/06 09:34:07;;;;;;;7.68;2.50;;;;;;;2.63;69.27;100254.81;5003241;28;20034;-68
2021/04/06 09:36:33;;;;;;;8.10;3.10;;;;;;;2.58;67.24;100246.47;5011120;28;20030;-68
2021/04/06 09:39:00;;;;;;;10.38;2.90;;;;;;;2.27;68.78;100254.63;5011820;28;20389;-68
2021/04/06 09:41:34;;;;;;;6.50;2.38;;;;;;;1.80;73.89;100273.47;4994015;28;20423;-68
2021/04/06 09:44:02;;;;;;;5.40;2.28;;;;;;;1.44;77.14;100283.59;5010938;28;20097;-68
2021/04/06 09:46:39;;;;;;;7.20;2.42;;;;;;;1.39;75.82;100275.25;5010765;28;20423;-68
2021/04/06 09:49:05;;;;;;;3.97;1.70;;;;;;;1.18;78.53;100272.25;5004080;28;20113;-67
2021/04/06 09:51:32;;;;;;;4.30;1.83;;;;;;;1.11;79.47;100267.53;5005339;28;20137;-67
2021/04/06 09:53:58;;;;;;;7.93;3.03;;;;;;;1.26;77.61;100264.81;5011055;28;20402;-68
2021/04/06 09:56:24;;;;;;;9.18;3.45;;;;;;;1.31;79.08;100259.31;5010364;28;20034;-68
2021/04/06 09:58:50;;;;;;;5.57;2.95;;;;;;;1.31;80.63;100256.69;5011063;28;20552;-68
2021/04/06 10:01:17;;;;;;;8.48;3.53;;;;;;;1.53;79.21;100261.34;5010329;28;20040;-68
2021/04/06 10:03:51;;;;;;;6.55;3.67;;;;;;;1.69;77.63;100256.78;5011335;28;20394;-68
2021/04/06 10:06:17;;;;;;;6.65;3.15;;;;;;;1.63;78.12;100256.34;4992684;28;20037;-68
2021/04/06 10:08:42;;;;;;;7.72;3.92;;;;;;;1.55;78.05;100254.25;5011203;28;20043;-68
2021/04/06 10:11:09;;;;;;;8.73;3.72;;;;;;;1.48;78.29;100250.38;5010873;28;20041;-68
2021/04/06 10:13:37;;;;;;;8.55;3.95;;;;;;;1.42;78.42;100256.00;5002803;28;20491;-68
2021/04/06 10:16:11;;;;;;;10.02;4.22;;;;;;;1.28;79.06;100257.69;5009859;28;20144;-68
2021/04/06 10:18:43;;;;;;;6.50;3.15;;;;;;;1.25;79.42;100257.06;5010778;28;20091;-68
2021/04/06 10:21:17;;;;;;;9.02;4.18;;;;;;;1.37;78.60;100258.88;5010276;28;20112;-68
2021/04/06 10:23:42;;;;;;;7.85;3.67;;;;;;;1.25;79.61;100244.88;5010180;28;20030;-68
2021/04/06 10:26:23;;;;;;;11.38;3.70;;;;;;;1.27;80.78;100237.81;5009506;28;20068;-69
2021/04/06 10:29:01;;;;;;;9.73;4.10;;;;;;;1.33;80.17;100235.75;5007848;28;20045;-69
2021/04/06 10:31:27;;;;;;;10.50;3.03;;;;;;;1.43;79.26;100236.81;4991322;28;20022;-68
2021/04/06 10:33:52;;;;;;;8.65;3.60;;;;;;;1.46;80.33;100227.03;4999970;28;20096;-69
2021/04/06 10:36:19;;;;;;;9.68;4.60;;;;;;;1.58;80.33;100227.16;5009768;28;20046;-69
2021/04/06 10:38:45;;;;;;;8.95;4.57;;;;;;;1.92;80.50;100216.13;5010069;28;20030;-69
2021/04/06 10:41:11;;;;;;;9.65;4.00;;;;;;;2.26;80.63;100219.03;4992513;28;20026;-69
2021/04/06 10:43:39;;;;;;;6.55;3.80;;;;;;;2.64;79.46;100215.53;5008844;28;20090;-69
2021/04/06 10:46:20;;;;;;;10.32;4.10;;;;;;;3.00;77.84;100202.56;5009052;28;20092;-71
2021/04/06 10:48:48;;;;;;;7.32;3.45;;;;;;;3.18;75.13;100186.38;4995286;28;20034;-69
2021/04/06 10:51:17;;;;;;;8.45;3.90;;;;;;;3.27;75.39;100184.03;4992343;28;20088;-69
2021/04/06 10:53:45;;;;;;;12.52;4.10;;;;;;;3.40;73.72;100180.38;5009949;28;20038;-67
2021/04/06 10:56:18;;;;;;;8.30;3.63;;;;;;;3.30;74.61;100166.34;5008411;28;20403;-70
2021/04/06 10:58:48;;;;;;;10.07;3.85;;;;;;;3.67;74.60;100160.13;5009689;28;20534;-69
2021/04/06 11:01:19;;;;;;;9.20;3.70;;;;;;;4.01;74.22;100164.44;5009223;28;20042;-69
2021/04/06 11:04:17;;;;;;;8.25;3.30;;;;;;;4.33;75.20;100155.88;5010230;28;20287;-69
2021/04/06 11:06:58;;;;;;;9.48;3.92;;;;;;;4.82;71.54;100159.81;5000487;28;20034;-69
2021/04/06 11:09:36;;;;;;;8.80;4.50;;;;;;;5.05;69.34;100152.72;4987444;28;20503;-69
2021/04/06 11:12:02;;;;;;;8.15;3.50;;;;;;;5.06;66.36;100145.69;5008128;28;20236;-70
2021/04/06 11:14:31;;;;;;;7.45;3.15;;;;;;;4.94;68.13;100142.28;5001434;28;20452;-69
2021/04/06 11:16:57;;;;;;;7.30;3.00;;;;;;;4.73;68.12;100129.13;5009579;28;20050;-69
2021/04/06 11:19:28;;;;;;;6.05;2.95;;;;;;;4.64;68.08;100135.09;5009827;28;20034;-69
2021/04/06 11:21:58;;;;;;;13.55;3.10;;;;;;;4.51;67.34;100137.88;5009993;28;20060;-69
2021/04/06 11:24:26;;;;;;;7.03;3.03;;;;;;;4.12;70.78;100132.22;5008961;28;20092;-69
2021/04/06 11:26:52;;;;;;;8.23;2.80;;;;;;;3.74;71.96;100153.47;5008600;28;20121;-69
2021/04/06 11:29:24;;;;;;;7.70;2.65;;;;;;;3.42;74.67;100179.47;5006735;28;20121;-69
2021/04/06 11:31:51;;;;;;;3.70;1.33;;;;;;;2.97;76.72;100190.56;5005613;28;20446;-69
2021/04/06 11:34:17;;;;;;;3.47;1.30;;;;;;;2.39;78.14;100194.72;5000754;28;20080;-69
2021/04/06 11:36:44;;;;;;;2.22;1.00;;;;;;;1.97;79.97;100186.31;5002289;28;20030;-69
2021/04/06 11:39:12;;;;;;;2.03;0.98;;;;;;;1.97;79.11;100178.47;5001634;28;20099;-69
2021/04/06 11:41:37;;;;;;;2.45;1.20;;;;;;;2.05;79.50;100170.94;5007718;28;20591;-69